Miami, Florida
Traffic Map
Current Weather Conditions
Miami, Florida
Scattered Clouds
Scattered Clouds
28°
Feels Like: 29°
Wind Chill: 28° Ceiling: Unl
Heat Index: 29° Visibility: 10mi
Dew Point: 19° Wind: 9mph
Humidity: 56% Direction: 200° (SSW)
Pressure: 29.91in Gusts: 0mph
Raw Report DataKMIA 261953Z 20008KT 170V250 10SM FEW040 SCT050 SCT250 28/19 A2991 RMK AO2 SLP127 T02830189
Traffic Incident Summary
Active as of:
Severity:
Category:
InformationThere was an issue retrieving the traffic information for this location. Please try a different location or try again shortly.
Advertisements